Time;durP1;ratioP1;P1;durP2;ratioP2;P2;SDS_P1;SDS_P2;PMS_P1;PMS_P2;Temp;Humidity;BMP_temperature;BMP_pressure;BME280_temperature;BME280_humidity;BME280_pressure;Samples;Min_cycle;Max_cycle;Signal;HPM_P1;HPM_P2
2022/02/20 00:00:43;;;;;;;4.8;1.95;;;;;;;2.39;57.94824;95200.11;;;;
2022/02/20 00:01:45;;;;;;;4.8;1.95;;;;;;;2.39;57.94824;95200.11;;;;
2022/02/20 00:02:45;;;;;;;4.8;1.95;;;;;;;2.39;57.94824;95200.11;;;;
2022/02/20 00:03:46;;;;;;;4.8;1.95;;;;;;;2.39;57.94824;95200.11;;;;
2022/02/20 00:04:46;;;;;;;4.8;1.95;;;;;;;2.39;57.94824;95200.11;;;;
2022/02/20 00:05:47;;;;;;;4.8;1.95;;;;;;;2.39;57.94824;95200.11;;;;
2022/02/20 00:06:47;;;;;;;3.35;1.9;;;;;;;2.45;58.03125;95194.84;;;;
2022/02/20 00:07:48;;;;;;;3.35;1.9;;;;;;;2.45;58.03125;95194.84;;;;
2022/02/20 00:08:49;;;;;;;3.35;1.9;;;;;;;2.45;58.03125;95194.84;;;;
2022/02/20 00:09:49;;;;;;;3.35;1.9;;;;;;;2.45;58.03125;95194.84;;;;
2022/02/20 00:10:50;;;;;;;3.35;1.9;;;;;;;2.45;58.03125;95194.84;;;;
2022/02/20 00:11:50;;;;;;;3.35;1.9;;;;;;;2.45;58.03125;95194.84;;;;
2022/02/20 00:12:51;;;;;;;3.35;1.9;;;;;;;2.45;58.03125;95194.84;;;;
2022/02/20 00:13:52;;;;;;;3.35;1.9;;;;;;;2.45;58.03125;95194.84;;;;
2022/02/20 00:14:52;;;;;;;3.35;1.9;;;;;;;2.45;58.03125;95194.84;;;;
2022/02/20 00:15:53;;;;;;;3.35;1.9;;;;;;;2.45;58.03125;95194.84;;;;
2022/02/20 00:16:54;;;;;;;3.35;1.9;;;;;;;2.45;58.03125;95194.84;;;;
2022/02/20 00:17:54;;;;;;;6.55;1.85;;;;;;;2.56;58.11914;95192.19;;;;
2022/02/20 00:18:55;;;;;;;6.55;1.85;;;;;;;2.56;58.11914;95192.19;;;;
2022/02/20 00:19:55;;;;;;;6.55;1.85;;;;;;;2.56;58.11914;95192.19;;;;
2022/02/20 00:20:56;;;;;;;6.55;1.85;;;;;;;2.56;58.11914;95192.19;;;;
2022/02/20 00:21:57;;;;;;;6.55;1.85;;;;;;;2.56;58.11914;95192.19;;;;
2022/02/20 00:22:57;;;;;;;6.55;1.85;;;;;;;2.56;58.11914;95192.19;;;;
2022/02/20 00:23:59;;;;;;;6.55;1.85;;;;;;;2.56;58.11914;95192.19;;;;
2022/02/20 00:25:00;;;;;;;6.55;1.85;;;;;;;2.56;58.11914;95192.19;;;;
2022/02/20 00:26:01;;;;;;;6.55;1.85;;;;;;;2.56;58.11914;95192.19;;;;
2022/02/20 00:27:02;;;;;;;6.55;1.85;;;;;;;2.56;58.11914;95192.19;;;;
2022/02/20 00:28:03;;;;;;;3.1;1.5;;;;;;;2.78;58.37109;95200.94;;;;
2022/02/20 00:29:05;;;;;;;3.1;1.5;;;;;;;2.78;58.37109;95200.94;;;;
2022/02/20 00:30:05;;;;;;;3.1;1.5;;;;;;;2.78;58.37109;95200.94;;;;
2022/02/20 00:31:07;;;;;;;3.1;1.5;;;;;;;2.78;58.37109;95200.94;;;;
2022/02/20 00:32:07;;;;;;;3.1;1.5;;;;;;;2.78;58.37109;95200.94;;;;
2022/02/20 00:33:08;;;;;;;3.1;1.5;;;;;;;2.78;58.37109;95200.94;;;;
2022/02/20 00:34:09;;;;;;;3.1;1.5;;;;;;;2.78;58.37109;95200.94;;;;
2022/02/20 00:35:10;;;;;;;3.1;1.5;;;;;;;2.78;58.37109;95200.94;;;;
2022/02/20 00:36:10;;;;;;;3.1;1.5;;;;;;;2.78;58.37109;95200.94;;;;
2022/02/20 00:37:11;;;;;;;3.1;1.5;;;;;;;2.78;58.37109;95200.94;;;;
2022/02/20 00:38:12;;;;;;;3.1;1.5;;;;;;;2.78;58.37109;95200.94;;;;
2022/02/20 00:39:13;;;;;;;3.6;1.4;;;;;;;3.12;58.5752;95183.8;;;;
2022/02/20 00:40:13;;;;;;;3.6;1.4;;;;;;;3.12;58.5752;95183.8;;;;
2022/02/20 00:41:14;;;;;;;3.6;1.4;;;;;;;3.12;58.5752;95183.8;;;;
2022/02/20 00:42:14;;;;;;;3.6;1.4;;;;;;;3.12;58.5752;95183.8;;;;
2022/02/20 00:43:15;;;;;;;3.6;1.4;;;;;;;3.12;58.5752;95183.8;;;;
2022/02/20 00:44:16;;;;;;;3.6;1.4;;;;;;;3.12;58.5752;95183.8;;;;
2022/02/20 00:45:16;;;;;;;3.6;1.4;;;;;;;3.12;58.5752;95183.8;;;;
2022/02/20 00:46:17;;;;;;;3.6;1.4;;;;;;;3.12;58.5752;95183.8;;;;
2022/02/20 00:47:18;;;;;;;3.6;1.4;;;;;;;3.12;58.5752;95183.8;;;;
2022/02/20 00:48:20;;;;;;;3.6;1.4;;;;;;;3.12;58.5752;95183.8;;;;
2022/02/20 00:49:21;;;;;;;2.95;1.5;;;;;;;3.4;58.61523;95179.69;;;;
2022/02/20 00:50:22;;;;;;;2.95;1.5;;;;;;;3.4;58.61523;95179.69;;;;
2022/02/20 00:51:22;;;;;;;2.95;1.5;;;;;;;3.4;58.61523;95179.69;;;;
2022/02/20 00:52:23;;;;;;;2.95;1.5;;;;;;;3.4;58.61523;95179.69;;;;
2022/02/20 00:53:26;;;;;;;2.95;1.5;;;;;;;3.4;58.61523;95179.69;;;;
2022/02/20 00:54:26;;;;;;;2.95;1.5;;;;;;;3.4;58.61523;95179.69;;;;
2022/02/20 00:55:27;;;;;;;2.95;1.5;;;;;;;3.4;58.61523;95179.69;;;;
2022/02/20 00:56:27;;;;;;;2.95;1.5;;;;;;;3.4;58.61523;95179.69;;;;
2022/02/20 00:57:28;;;;;;;2.95;1.5;;;;;;;3.4;58.61523;95179.69;;;;
2022/02/20 00:58:28;;;;;;;2.95;1.5;;;;;;;3.4;58.61523;95179.69;;;;
2022/02/20 00:59:29;;;;;;;2.95;1.5;;;;;;;3.4;58.61523;95179.69;;;;
2022/02/20 01:00:30;;;;;;;2.750001;1.25;;;;;;;3.76;58.37695;95197.28;;;;
2022/02/20 01:01:30;;;;;;;2.750001;1.25;;;;;;;3.76;58.37695;95197.28;;;;
2022/02/20 01:02:31;;;;;;;2.750001;1.25;;;;;;;3.76;58.37695;95197.28;;;;
2022/02/20 01:03:31;;;;;;;2.750001;1.25;;;;;;;3.76;58.37695;95197.28;;;;
2022/02/20 01:04:32;;;;;;;2.750001;1.25;;;;;;;3.76;58.37695;95197.28;;;;
2022/02/20 01:05:33;;;;;;;2.750001;1.25;;;;;;;3.76;58.37695;95197.28;;;;
2022/02/20 01:06:33;;;;;;;2.750001;1.25;;;;;;;3.76;58.37695;95197.28;;;;
2022/02/20 01:07:34;;;;;;;2.750001;1.25;;;;;;;3.76;58.37695;95197.28;;;;
2022/02/20 01:08:35;;;;;;;2.750001;1.25;;;;;;;3.76;58.37695;95197.28;;;;
2022/02/20 01:09:35;;;;;;;2.750001;1.25;;;;;;;3.76;58.37695;95197.28;;;;
2022/02/20 01:10:37;;;;;;;4;1.4;;;;;;;4.05;57.89746;95194.9;;;;
2022/02/20 01:11:37;;;;;;;4;1.4;;;;;;;4.05;57.89746;95194.9;;;;
2022/02/20 01:12:38;;;;;;;4;1.4;;;;;;;4.05;57.89746;95194.9;;;;
2022/02/20 01:13:38;;;;;;;4;1.4;;;;;;;4.05;57.89746;95194.9;;;;
2022/02/20 01:14:39;;;;;;;4;1.4;;;;;;;4.05;57.89746;95194.9;;;;
2022/02/20 01:15:39;;;;;;;4;1.4;;;;;;;4.05;57.89746;95194.9;;;;
2022/02/20 01:16:40;;;;;;;4;1.4;;;;;;;4.05;57.89746;95194.9;;;;
2022/02/20 01:17:41;;;;;;;4;1.4;;;;;;;4.05;57.89746;95194.9;;;;
2022/02/20 01:18:42;;;;;;;4;1.4;;;;;;;4.05;57.89746;95194.9;;;;
2022/02/20 01:19:43;;;;;;;4;1.4;;;;;;;4.05;57.89746;95194.9;;;;
2022/02/20 01:20:43;;;;;;;4;1.4;;;;;;;4.05;57.89746;95194.9;;;;
2022/02/20 01:21:44;;;;;;;2.7;1.45;;;;;;;4.29;57.55957;95209.08;;;;
2022/02/20 01:22:44;;;;;;;2.7;1.45;;;;;;;4.29;57.55957;95209.08;;;;
2022/02/20 01:23:44;;;;;;;2.7;1.45;;;;;;;4.29;57.55957;95209.08;;;;
2022/02/20 01:24:45;;;;;;;2.7;1.45;;;;;;;4.29;57.55957;95209.08;;;;
2022/02/20 01:25:46;;;;;;;2.7;1.45;;;;;;;4.29;57.55957;95209.08;;;;
2022/02/20 01:26:46;;;;;;;2.7;1.45;;;;;;;4.29;57.55957;95209.08;;;;
2022/02/20 01:27:47;;;;;;;2.7;1.45;;;;;;;4.29;57.55957;95209.08;;;;
2022/02/20 01:28:47;;;;;;;2.7;1.45;;;;;;;4.29;57.55957;95209.08;;;;
2022/02/20 01:29:48;;;;;;;2.7;1.45;;;;;;;4.29;57.55957;95209.08;;;;
2022/02/20 01:30:49;;;;;;;2.7;1.45;;;;;;;4.29;57.55957;95209.08;;;;
2022/02/20 01:31:50;;;;;;;3.200001;1.25;;;;;;;4.54;57.02148;95215.95;;;;
2022/02/20 01:32:50;;;;;;;3.200001;1.25;;;;;;;4.54;57.02148;95215.95;;;;
2022/02/20 01:33:51;;;;;;;3.200001;1.25;;;;;;;4.54;57.02148;95215.95;;;;
2022/02/20 01:34:51;;;;;;;3.200001;1.25;;;;;;;4.54;57.02148;95215.95;;;;
2022/02/20 01:35:52;;;;;;;3.200001;1.25;;;;;;;4.54;57.02148;95215.95;;;;
2022/02/20 01:36:52;;;;;;;3.200001;1.25;;;;;;;4.54;57.02148;95215.95;;;;
2022/02/20 01:37:53;;;;;;;3.200001;1.25;;;;;;;4.54;57.02148;95215.95;;;;
2022/02/20 01:38:54;;;;;;;3.200001;1.25;;;;;;;4.54;57.02148;95215.95;;;;
2022/02/20 01:39:54;;;;;;;3.200001;1.25;;;;;;;4.54;57.02148;95215.95;;;;
2022/02/20 01:40:56;;;;;;;3.200001;1.25;;;;;;;4.54;57.02148;95215.95;;;;
2022/02/20 01:41:56;;;;;;;3.200001;1.25;;;;;;;4.54;57.02148;95215.95;;;;
2022/02/20 01:42:57;;;;;;;3.200001;1.25;;;;;;;4.54;57.02148;95215.95;;;;
2022/02/20 01:43:58;;;;;;;3.200001;1.25;;;;;;;4.54;57.02148;95215.95;;;;
2022/02/20 01:44:59;;;;;;;3.200001;1.25;;;;;;;4.54;57.02148;95215.95;;;;
2022/02/20 01:46:00;;;;;;;3.200001;1.25;;;;;;;4.54;57.02148;95215.95;;;;
2022/02/20 01:47:01;;;;;;;3.200001;1.25;;;;;;;4.54;57.02148;95215.95;;;;
2022/02/20 01:48:04;;;;;;;3.200001;1.25;;;;;;;4.54;57.02148;95215.95;;;;
2022/02/20 01:49:06;;;;;;;3.200001;1.25;;;;;;;4.54;57.02148;95215.95;;;;
2022/02/20 01:50:06;;;;;;;3.200001;1.25;;;;;;;4.54;57.02148;95215.95;;;;
2022/02/20 01:51:08;;;;;;;3.200001;1.25;;;;;;;4.54;57.02148;95215.95;;;;
2022/02/20 01:52:09;;;;;;;3.200001;1.25;;;;;;;4.54;57.02148;95215.95;;;;
2022/02/20 01:53:10;;;;;;;3.15;1.45;;;;;;;4.88;55.66406;95254.72;;;;
2022/02/20 01:54:11;;;;;;;3.15;1.45;;;;;;;4.88;55.66406;95254.72;;;;
2022/02/20 01:55:11;;;;;;;3.15;1.45;;;;;;;4.88;55.66406;95254.72;;;;
2022/02/20 01:56:14;;;;;;;3.15;1.45;;;;;;;4.88;55.66406;95254.72;;;;
2022/02/20 01:57:14;;;;;;;3.15;1.45;;;;;;;4.88;55.66406;95254.72;;;;
2022/02/20 01:58:16;;;;;;;3.15;1.45;;;;;;;4.88;55.66406;95254.72;;;;
2022/02/20 01:59:17;;;;;;;3.15;1.45;;;;;;;4.88;55.66406;95254.72;;;;
2022/02/20 02:00:18;;;;;;;3.15;1.45;;;;;;;4.88;55.66406;95254.72;;;;
2022/02/20 02:01:20;;;;;;;3.15;1.45;;;;;;;4.88;55.66406;95254.72;;;;
2022/02/20 02:02:21;;;;;;;3.15;1.45;;;;;;;4.88;55.66406;95254.72;;;;
2022/02/20 02:03:21;;;;;;;3.15;1.45;;;;;;;4.88;55.66406;95254.72;;;;
2022/02/20 02:04:22;;;;;;;2.55;1.3;;;;;;;5.06;54.59277;95257.65;;;;
2022/02/20 02:05:23;;;;;;;2.55;1.3;;;;;;;5.06;54.59277;95257.65;;;;
2022/02/20 02:06:24;;;;;;;2.55;1.3;;;;;;;5.06;54.59277;95257.65;;;;
2022/02/20 02:07:24;;;;;;;2.55;1.3;;;;;;;5.06;54.59277;95257.65;;;;
2022/02/20 02:08:26;;;;;;;2.55;1.3;;;;;;;5.06;54.59277;95257.65;;;;
2022/02/20 02:09:27;;;;;;;2.55;1.3;;;;;;;5.06;54.59277;95257.65;;;;
2022/02/20 02:10:27;;;;;;;2.55;1.3;;;;;;;5.06;54.59277;95257.65;;;;
2022/02/20 02:11:28;;;;;;;2.55;1.3;;;;;;;5.06;54.59277;95257.65;;;;
2022/02/20 02:12:29;;;;;;;2.55;1.3;;;;;;;5.06;54.59277;95257.65;;;;
2022/02/20 02:13:30;;;;;;;2.55;1.3;;;;;;;5.06;54.59277;95257.65;;;;
2022/02/20 02:14:30;;;;;;;2;1.3;;;;;;;5.13;53.77246;95239.75;;;;
2022/02/20 02:15:31;;;;;;;2;1.3;;;;;;;5.13;53.77246;95239.75;;;;
2022/02/20 02:16:31;;;;;;;2;1.3;;;;;;;5.13;53.77246;95239.75;;;;
2022/02/20 02:17:32;;;;;;;2;1.3;;;;;;;5.13;53.77246;95239.75;;;;
2022/02/20 02:18:33;;;;;;;2;1.3;;;;;;;5.13;53.77246;95239.75;;;;
2022/02/20 02:19:33;;;;;;;2;1.3;;;;;;;5.13;53.77246;95239.75;;;;
2022/02/20 02:20:34;;;;;;;2;1.3;;;;;;;5.13;53.77246;95239.75;;;;
2022/02/20 02:21:34;;;;;;;2;1.3;;;;;;;5.13;53.77246;95239.75;;;;
2022/02/20 02:22:35;;;;;;;2;1.3;;;;;;;5.13;53.77246;95239.75;;;;
2022/02/20 02:23:35;;;;;;;2;1.3;;;;;;;5.13;53.77246;95239.75;;;;
2022/02/20 02:24:36;;;;;;;2;1.3;;;;;;;5.13;53.77246;95239.75;;;;
2022/02/20 02:25:36;;;;;;;2.15;1.05;;;;;;;5.15;52.97754;95249.74;;;;
2022/02/20 02:26:38;;;;;;;2.15;1.05;;;;;;;5.15;52.97754;95249.74;;;;
2022/02/20 02:27:39;;;;;;;2.15;1.05;;;;;;;5.15;52.97754;95249.74;;;;
2022/02/20 02:28:40;;;;;;;2.15;1.05;;;;;;;5.15;52.97754;95249.74;;;;
2022/02/20 02:29:40;;;;;;;2.15;1.05;;;;;;;5.15;52.97754;95249.74;;;;
2022/02/20 02:30:42;;;;;;;2.15;1.05;;;;;;;5.15;52.97754;95249.74;;;;
2022/02/20 02:31:45;;;;;;;2.15;1.05;;;;;;;5.15;52.97754;95249.74;;;;
2022/02/20 02:32:45;;;;;;;2.15;1.05;;;;;;;5.15;52.97754;95249.74;;;;
2022/02/20 02:33:46;;;;;;;2.15;1.05;;;;;;;5.15;52.97754;95249.74;;;;
2022/02/20 02:34:47;;;;;;;2.15;1.05;;;;;;;5.15;52.97754;95249.74;;;;
2022/02/20 02:35:48;;;;;;;2.9;1.3;;;;;;;5.08;52.96973;95250.16;;;;
2022/02/20 02:36:49;;;;;;;2.9;1.3;;;;;;;5.08;52.96973;95250.16;;;;
2022/02/20 02:37:52;;;;;;;2.9;1.3;;;;;;;5.08;52.96973;95250.16;;;;
2022/02/20 02:38:52;;;;;;;2.9;1.3;;;;;;;5.08;52.96973;95250.16;;;;
2022/02/20 02:39:53;;;;;;;2.9;1.3;;;;;;;5.08;52.96973;95250.16;;;;
2022/02/20 02:40:53;;;;;;;2.9;1.3;;;;;;;5.08;52.96973;95250.16;;;;
2022/02/20 02:41:55;;;;;;;2.9;1.3;;;;;;;5.08;52.96973;95250.16;;;;
2022/02/20 02:42:56;;;;;;;2.9;1.3;;;;;;;5.08;52.96973;95250.16;;;;
2022/02/20 02:43:57;;;;;;;2.9;1.3;;;;;;;5.08;52.96973;95250.16;;;;
2022/02/20 02:44:57;;;;;;;2.9;1.3;;;;;;;5.08;52.96973;95250.16;;;;
2022/02/20 02:45:58;;;;;;;2.9;1.3;;;;;;;5.08;52.96973;95250.16;;;;
2022/02/20 02:46:59;;;;;;;6.199999;1.4;;;;;;;4.91;53.55469;95268.93;;;;
2022/02/20 02:47:59;;;;;;;6.199999;1.4;;;;;;;4.91;53.55469;95268.93;;;;
2022/02/20 02:49:01;;;;;;;6.199999;1.4;;;;;;;4.91;53.55469;95268.93;;;;
2022/02/20 02:50:02;;;;;;;6.199999;1.4;;;;;;;4.91;53.55469;95268.93;;;;
2022/02/20 02:51:04;;;;;;;6.199999;1.4;;;;;;;4.91;53.55469;95268.93;;;;
2022/02/20 02:52:04;;;;;;;6.199999;1.4;;;;;;;4.91;53.55469;95268.93;;;;
2022/02/20 02:53:07;;;;;;;6.199999;1.4;;;;;;;4.91;53.55469;95268.93;;;;
2022/02/20 02:54:08;;;;;;;6.199999;1.4;;;;;;;4.91;53.55469;95268.93;;;;
2022/02/20 02:55:10;;;;;;;6.199999;1.4;;;;;;;4.91;53.55469;95268.93;;;;
2022/02/20 02:56:11;;;;;;;6.199999;1.4;;;;;;;4.91;53.55469;95268.93;;;;
2022/02/20 02:57:11;;;;;;;2.55;1.1;;;;;;;4.76;54.60742;95275.89;;;;
2022/02/20 02:58:12;;;;;;;2.55;1.1;;;;;;;4.76;54.60742;95275.89;;;;
2022/02/20 02:59:16;;;;;;;2.55;1.1;;;;;;;4.76;54.60742;95275.89;;;;
2022/02/20 03:00:18;;;;;;;2.55;1.1;;;;;;;4.76;54.60742;95275.89;;;;
2022/02/20 03:01:19;;;;;;;2.55;1.1;;;;;;;4.76;54.60742;95275.89;;;;
2022/02/20 03:02:19;;;;;;;2.55;1.1;;;;;;;4.76;54.60742;95275.89;;;;
2022/02/20 03:03:20;;;;;;;2.55;1.1;;;;;;;4.76;54.60742;95275.89;;;;
2022/02/20 03:04:20;;;;;;;2.55;1.1;;;;;;;4.76;54.60742;95275.89;;;;
2022/02/20 03:05:21;;;;;;;2.55;1.1;;;;;;;4.76;54.60742;95275.89;;;;
2022/02/20 03:06:21;;;;;;;2.55;1.1;;;;;;;4.76;54.60742;95275.89;;;;
2022/02/20 03:07:22;;;;;;;2.55;1.1;;;;;;;4.76;54.60742;95275.89;;;;
2022/02/20 03:08:23;;;;;;;1.7;1.1;;;;;;;4.51;56.16699;95287.72;;;;
2022/02/20 03:09:24;;;;;;;1.7;1.1;;;;;;;4.51;56.16699;95287.72;;;;
2022/02/20 03:10:25;;;;;;;1.7;1.1;;;;;;;4.51;56.16699;95287.72;;;;
2022/02/20 03:11:25;;;;;;;1.7;1.1;;;;;;;4.51;56.16699;95287.72;;;;
2022/02/20 03:12:26;;;;;;;1.7;1.1;;;;;;;4.51;56.16699;95287.72;;;;
2022/02/20 03:13:26;;;;;;;1.7;1.1;;;;;;;4.51;56.16699;95287.72;;;;
2022/02/20 03:14:27;;;;;;;1.7;1.1;;;;;;;4.51;56.16699;95287.72;;;;
2022/02/20 03:15:28;;;;;;;1.7;1.1;;;;;;;4.51;56.16699;95287.72;;;;
2022/02/20 03:16:29;;;;;;;1.7;1.1;;;;;;;4.51;56.16699;95287.72;;;;
2022/02/20 03:17:29;;;;;;;1.7;1.1;;;;;;;4.51;56.16699;95287.72;;;;
2022/02/20 03:18:31;;;;;;;1.9;1.15;;;;;;;4.25;57.39551;95267.94;;;;
2022/02/20 03:19:32;;;;;;;1.9;1.15;;;;;;;4.25;57.39551;95267.94;;;;
2022/02/20 03:20:32;;;;;;;1.9;1.15;;;;;;;4.25;57.39551;95267.94;;;;
2022/02/20 03:21:33;;;;;;;1.9;1.15;;;;;;;4.25;57.39551;95267.94;;;;
2022/02/20 03:22:33;;;;;;;1.9;1.15;;;;;;;4.25;57.39551;95267.94;;;;
2022/02/20 03:23:34;;;;;;;1.9;1.15;;;;;;;4.25;57.39551;95267.94;;;;
2022/02/20 03:24:35;;;;;;;1.9;1.15;;;;;;;4.25;57.39551;95267.94;;;;
2022/02/20 03:25:36;;;;;;;1.9;1.15;;;;;;;4.25;57.39551;95267.94;;;;
2022/02/20 03:26:36;;;;;;;1.9;1.15;;;;;;;4.25;57.39551;95267.94;;;;
2022/02/20 03:27:37;;;;;;;1.9;1.15;;;;;;;4.25;57.39551;95267.94;;;;
2022/02/20 03:28:37;;;;;;;1.9;1.15;;;;;;;4.25;57.39551;95267.94;;;;
2022/02/20 03:29:38;;;;;;;1.8;1.15;;;;;;;3.94;58.91113;95295.08;;;;
2022/02/20 03:30:38;;;;;;;1.8;1.15;;;;;;;3.94;58.91113;95295.08;;;;
2022/02/20 03:31:39;;;;;;;1.8;1.15;;;;;;;3.94;58.91113;95295.08;;;;
2022/02/20 03:32:39;;;;;;;1.8;1.15;;;;;;;3.94;58.91113;95295.08;;;;
2022/02/20 03:33:40;;;;;;;1.8;1.15;;;;;;;3.94;58.91113;95295.08;;;;
2022/02/20 03:34:41;;;;;;;1.8;1.15;;;;;;;3.94;58.91113;95295.08;;;;
2022/02/20 03:35:41;;;;;;;1.8;1.15;;;;;;;3.94;58.91113;95295.08;;;;
2022/02/20 03:36:42;;;;;;;1.8;1.15;;;;;;;3.94;58.91113;95295.08;;;;
2022/02/20 03:37:42;;;;;;;1.8;1.15;;;;;;;3.94;58.91113;95295.08;;;;
2022/02/20 03:38:43;;;;;;;1.8;1.15;;;;;;;3.94;58.91113;95295.08;;;;
2022/02/20 03:39:44;;;;;;;1.8;1.15;;;;;;;3.94;58.91113;95295.08;;;;
2022/02/20 03:40:44;;;;;;;2.75;1.3;;;;;;;3.63;60.35938;95291.58;;;;
2022/02/20 03:41:45;;;;;;;2.75;1.3;;;;;;;3.63;60.35938;95291.58;;;;
2022/02/20 03:42:45;;;;;;;2.75;1.3;;;;;;;3.63;60.35938;95291.58;;;;
2022/02/20 03:43:46;;;;;;;2.75;1.3;;;;;;;3.63;60.35938;95291.58;;;;
2022/02/20 03:44:46;;;;;;;2.75;1.3;;;;;;;3.63;60.35938;95291.58;;;;
2022/02/20 03:45:47;;;;;;;2.75;1.3;;;;;;;3.63;60.35938;95291.58;;;;
2022/02/20 03:46:47;;;;;;;2.75;1.3;;;;;;;3.63;60.35938;95291.58;;;;
2022/02/20 03:47:48;;;;;;;2.75;1.3;;;;;;;3.63;60.35938;95291.58;;;;
2022/02/20 03:48:49;;;;;;;2.75;1.3;;;;;;;3.63;60.35938;95291.58;;;;
2022/02/20 03:49:49;;;;;;;2.75;1.3;;;;;;;3.63;60.35938;95291.58;;;;
2022/02/20 03:50:50;;;;;;;2.65;1.35;;;;;;;3.38;61.51855;95285.83;;;;
2022/02/20 03:51:50;;;;;;;2.65;1.35;;;;;;;3.38;61.51855;95285.83;;;;
2022/02/20 03:52:51;;;;;;;2.65;1.35;;;;;;;3.38;61.51855;95285.83;;;;
2022/02/20 03:53:51;;;;;;;2.65;1.35;;;;;;;3.38;61.51855;95285.83;;;;
2022/02/20 03:54:52;;;;;;;2.65;1.35;;;;;;;3.38;61.51855;95285.83;;;;
2022/02/20 03:55:52;;;;;;;2.65;1.35;;;;;;;3.38;61.51855;95285.83;;;;
2022/02/20 03:56:53;;;;;;;2.65;1.35;;;;;;;3.38;61.51855;95285.83;;;;
2022/02/20 03:57:53;;;;;;;2.65;1.35;;;;;;;3.38;61.51855;95285.83;;;;
2022/02/20 03:58:54;;;;;;;2.65;1.35;;;;;;;3.38;61.51855;95285.83;;;;
2022/02/20 03:59:54;;;;;;;2.65;1.35;;;;;;;3.38;61.51855;95285.83;;;;
2022/02/20 04:00:55;;;;;;;2.65;1.35;;;;;;;3.38;61.51855;95285.83;;;;
2022/02/20 04:01:55;;;;;;;2.5;1.2;;;;;;;3.27;62.33594;95264.58;;;;
2022/02/20 04:02:56;;;;;;;2.5;1.2;;;;;;;3.27;62.33594;95264.58;;;;
2022/02/20 04:03:56;;;;;;;2.5;1.2;;;;;;;3.27;62.33594;95264.58;;;;
2022/02/20 04:04:57;;;;;;;2.5;1.2;;;;;;;3.27;62.33594;95264.58;;;;
2022/02/20 04:05:58;;;;;;;2.5;1.2;;;;;;;3.27;62.33594;95264.58;;;;
2022/02/20 04:06:58;;;;;;;2.5;1.2;;;;;;;3.27;62.33594;95264.58;;;;
2022/02/20 04:07:59;;;;;;;2.5;1.2;;;;;;;3.27;62.33594;95264.58;;;;
2022/02/20 04:08:59;;;;;;;2.5;1.2;;;;;;;3.27;62.33594;95264.58;;;;
2022/02/20 04:10:00;;;;;;;2.5;1.2;;;;;;;3.27;62.33594;95264.58;;;;
2022/02/20 04:11:01;;;;;;;2.5;1.2;;;;;;;3.27;62.33594;95264.58;;;;
2022/02/20 04:12:02;;;;;;;1.9;1;;;;;;;3.31;62.87988;95275.19;;;;
2022/02/20 04:13:03;;;;;;;1.9;1;;;;;;;3.31;62.87988;95275.19;;;;
2022/02/20 04:14:03;;;;;;;1.9;1;;;;;;;3.31;62.87988;95275.19;;;;
2022/02/20 04:15:06;;;;;;;1.9;1;;;;;;;3.31;62.87988;95275.19;;;;
2022/02/20 04:16:08;;;;;;;1.9;1;;;;;;;3.31;62.87988;95275.19;;;;
2022/02/20 04:17:08;;;;;;;1.9;1;;;;;;;3.31;62.87988;95275.19;;;;
2022/02/20 04:18:09;;;;;;;1.9;1;;;;;;;3.31;62.87988;95275.19;;;;
2022/02/20 04:19:09;;;;;;;1.9;1;;;;;;;3.31;62.87988;95275.19;;;;
2022/02/20 04:20:12;;;;;;;1.9;1;;;;;;;3.31;62.87988;95275.19;;;;
2022/02/20 04:21:14;;;;;;;1.9;1;;;;;;;3.31;62.87988;95275.19;;;;
2022/02/20 04:22:15;;;;;;;1.9;1;;;;;;;3.31;62.87988;95275.19;;;;
2022/02/20 04:23:15;;;;;;;1.65;1.1;;;;;;;3.43;63.00391;95285.66;;;;
2022/02/20 04:24:16;;;;;;;1.65;1.1;;;;;;;3.43;63.00391;95285.66;;;;
2022/02/20 04:25:16;;;;;;;1.65;1.1;;;;;;;3.43;63.00391;95285.66;;;;
2022/02/20 04:26:17;;;;;;;1.65;1.1;;;;;;;3.43;63.00391;95285.66;;;;
2022/02/20 04:27:17;;;;;;;1.65;1.1;;;;;;;3.43;63.00391;95285.66;;;;
2022/02/20 04:28:18;;;;;;;1.65;1.1;;;;;;;3.43;63.00391;95285.66;;;;
2022/02/20 04:29:18;;;;;;;1.65;1.1;;;;;;;3.43;63.00391;95285.66;;;;
2022/02/20 04:30:19;;;;;;;1.65;1.1;;;;;;;3.43;63.00391;95285.66;;;;
2022/02/20 04:31:20;;;;;;;1.65;1.1;;;;;;;3.43;63.00391;95285.66;;;;
2022/02/20 04:32:21;;;;;;;1.65;1.1;;;;;;;3.43;63.00391;95285.66;;;;
2022/02/20 04:33:21;;;;;;;3.5;1.4;;;;;;;3.57;62.73926;95281.57;;;;
2022/02/20 04:34:22;;;;;;;3.5;1.4;;;;;;;3.57;62.73926;95281.57;;;;
2022/02/20 04:35:23;;;;;;;3.5;1.4;;;;;;;3.57;62.73926;95281.57;;;;
2022/02/20 04:36:24;;;;;;;3.5;1.4;;;;;;;3.57;62.73926;95281.57;;;;
2022/02/20 04:37:24;;;;;;;3.5;1.4;;;;;;;3.57;62.73926;95281.57;;;;
2022/02/20 04:38:25;;;;;;;3.5;1.4;;;;;;;3.57;62.73926;95281.57;;;;
2022/02/20 04:39:25;;;;;;;3.5;1.4;;;;;;;3.57;62.73926;95281.57;;;;
2022/02/20 04:40:26;;;;;;;3.5;1.4;;;;;;;3.57;62.73926;95281.57;;;;
2022/02/20 04:41:26;;;;;;;3.5;1.4;;;;;;;3.57;62.73926;95281.57;;;;
2022/02/20 04:42:27;;;;;;;3.5;1.4;;;;;;;3.57;62.73926;95281.57;;;;
2022/02/20 04:43:28;;;;;;;3.5;1.4;;;;;;;3.57;62.73926;95281.57;;;;
2022/02/20 04:44:28;;;;;;;3.35;1.6;;;;;;;3.68;62.15234;95278.46;;;;
2022/02/20 04:45:29;;;;;;;3.35;1.6;;;;;;;3.68;62.15234;95278.46;;;;
2022/02/20 04:46:33;;;;;;;3.35;1.6;;;;;;;3.68;62.15234;95278.46;;;;
2022/02/20 04:47:34;;;;;;;3.35;1.6;;;;;;;3.68;62.15234;95278.46;;;;
2022/02/20 04:48:34;;;;;;;3.35;1.6;;;;;;;3.68;62.15234;95278.46;;;;
2022/02/20 04:49:35;;;;;;;3.35;1.6;;;;;;;3.68;62.15234;95278.46;;;;
2022/02/20 04:50:36;;;;;;;3.35;1.6;;;;;;;3.68;62.15234;95278.46;;;;
2022/02/20 04:51:36;;;;;;;3.35;1.6;;;;;;;3.68;62.15234;95278.46;;;;
2022/02/20 04:52:37;;;;;;;3.35;1.6;;;;;;;3.68;62.15234;95278.46;;;;
2022/02/20 04:53:37;;;;;;;3.35;1.6;;;;;;;3.68;62.15234;95278.46;;;;
2022/02/20 04:54:38;;;;;;;49.4;11.75;;;;;;;3.77;62.03906;95272.8;;;;
2022/02/20 04:55:38;;;;;;;49.4;11.75;;;;;;;3.77;62.03906;95272.8;;;;
2022/02/20 04:56:42;;;;;;;49.4;11.75;;;;;;;3.77;62.03906;95272.8;;;;
2022/02/20 04:57:43;;;;;;;49.4;11.75;;;;;;;3.77;62.03906;95272.8;;;;
2022/02/20 04:58:44;;;;;;;49.4;11.75;;;;;;;3.77;62.03906;95272.8;;;;
2022/02/20 04:59:44;;;;;;;49.4;11.75;;;;;;;3.77;62.03906;95272.8;;;;
2022/02/20 05:00:45;;;;;;;49.4;11.75;;;;;;;3.77;62.03906;95272.8;;;;
2022/02/20 05:01:45;;;;;;;49.4;11.75;;;;;;;3.77;62.03906;95272.8;;;;
2022/02/20 05:02:46;;;;;;;49.4;11.75;;;;;;;3.77;62.03906;95272.8;;;;
2022/02/20 05:03:47;;;;;;;49.4;11.75;;;;;;;3.77;62.03906;95272.8;;;;
2022/02/20 05:04:47;;;;;;;49.4;11.75;;;;;;;3.77;62.03906;95272.8;;;;
2022/02/20 05:05:48;;;;;;;116;82.75002;;;;;;;3.92;62.19824;95266.82;;;;
2022/02/20 05:06:49;;;;;;;116;82.75002;;;;;;;3.92;62.19824;95266.82;;;;
2022/02/20 05:07:49;;;;;;;116;82.75002;;;;;;;3.92;62.19824;95266.82;;;;
2022/02/20 05:08:50;;;;;;;116;82.75002;;;;;;;3.92;62.19824;95266.82;;;;
2022/02/20 05:09:50;;;;;;;116;82.75002;;;;;;;3.92;62.19824;95266.82;;;;
2022/02/20 05:10:50;;;;;;;116;82.75002;;;;;;;3.92;62.19824;95266.82;;;;
2022/02/20 05:11:51;;;;;;;116;82.75002;;;;;;;3.92;62.19824;95266.82;;;;
2022/02/20 05:12:51;;;;;;;116;82.75002;;;;;;;3.92;62.19824;95266.82;;;;
2022/02/20 05:13:54;;;;;;;116;82.75002;;;;;;;3.92;62.19824;95266.82;;;;
2022/02/20 05:14:56;;;;;;;116;82.75002;;;;;;;3.92;62.19824;95266.82;;;;
2022/02/20 05:15:56;;;;;;;3.6;2.55;;;;;;;4.08;62.13574;95288.42;;;;
2022/02/20 05:16:57;;;;;;;3.6;2.55;;;;;;;4.08;62.13574;95288.42;;;;
2022/02/20 05:17:58;;;;;;;3.6;2.55;;;;;;;4.08;62.13574;95288.42;;;;
2022/02/20 05:18:59;;;;;;;3.6;2.55;;;;;;;4.08;62.13574;95288.42;;;;
2022/02/20 05:19:59;;;;;;;3.6;2.55;;;;;;;4.08;62.13574;95288.42;;;;
2022/02/20 05:21:00;;;;;;;3.6;2.55;;;;;;;4.08;62.13574;95288.42;;;;
2022/02/20 05:22:00;;;;;;;3.6;2.55;;;;;;;4.08;62.13574;95288.42;;;;
2022/02/20 05:23:01;;;;;;;3.6;2.55;;;;;;;4.08;62.13574;95288.42;;;;
2022/02/20 05:24:01;;;;;;;3.6;2.55;;;;;;;4.08;62.13574;95288.42;;;;
2022/02/20 05:25:02;;;;;;;3.6;2.55;;;;;;;4.08;62.13574;95288.42;;;;
2022/02/20 05:26:03;;;;;;;3.6;2.55;;;;;;;4.08;62.13574;95288.42;;;;
2022/02/20 05:27:04;;;;;;;3.3;1.5;;;;;;;4.18;62.21387;95294.22;;;;
2022/02/20 05:28:04;;;;;;;3.3;1.5;;;;;;;4.18;62.21387;95294.22;;;;
2022/02/20 05:29:05;;;;;;;3.3;1.5;;;;;;;4.18;62.21387;95294.22;;;;
2022/02/20 05:30:05;;;;;;;3.3;1.5;;;;;;;4.18;62.21387;95294.22;;;;
2022/02/20 05:31:07;;;;;;;3.3;1.5;;;;;;;4.18;62.21387;95294.22;;;;
2022/02/20 05:32:08;;;;;;;3.3;1.5;;;;;;;4.18;62.21387;95294.22;;;;
2022/02/20 05:33:08;;;;;;;3.3;1.5;;;;;;;4.18;62.21387;95294.22;;;;
2022/02/20 05:34:09;;;;;;;3.3;1.5;;;;;;;4.18;62.21387;95294.22;;;;
2022/02/20 05:35:09;;;;;;;3.3;1.5;;;;;;;4.18;62.21387;95294.22;;;;
2022/02/20 05:36:10;;;;;;;3.3;1.5;;;;;;;4.18;62.21387;95294.22;;;;
2022/02/20 05:37:11;;;;;;;3.3;1.5;;;;;;;4.18;62.21387;95294.22;;;;
2022/02/20 05:38:11;;;;;;;1.7;1.25;;;;;;;4.28;62.29102;95296.54;;;;
2022/02/20 05:39:12;;;;;;;1.7;1.25;;;;;;;4.28;62.29102;95296.54;;;;
2022/02/20 05:40:13;;;;;;;1.7;1.25;;;;;;;4.28;62.29102;95296.54;;;;
2022/02/20 05:41:15;;;;;;;1.7;1.25;;;;;;;4.28;62.29102;95296.54;;;;
2022/02/20 05:42:16;;;;;;;1.7;1.25;;;;;;;4.28;62.29102;95296.54;;;;
2022/02/20 05:43:16;;;;;;;1.7;1.25;;;;;;;4.28;62.29102;95296.54;;;;
2022/02/20 05:44:17;;;;;;;1.7;1.25;;;;;;;4.28;62.29102;95296.54;;;;
2022/02/20 05:45:18;;;;;;;1.7;1.25;;;;;;;4.28;62.29102;95296.54;;;;
2022/02/20 05:46:19;;;;;;;1.7;1.25;;;;;;;4.28;62.29102;95296.54;;;;
2022/02/20 05:47:19;;;;;;;1.7;1.25;;;;;;;4.28;62.29102;95296.54;;;;
2022/02/20 05:48:20;;;;;;;1.7;1.3;;;;;;;4.37;62.17773;95300.7;;;;
2022/02/20 05:49:21;;;;;;;1.7;1.3;;;;;;;4.37;62.17773;95300.7;;;;
2022/02/20 05:50:21;;;;;;;1.7;1.3;;;;;;;4.37;62.17773;95300.7;;;;
2022/02/20 05:51:22;;;;;;;1.7;1.3;;;;;;;4.37;62.17773;95300.7;;;;
2022/02/20 05:52:23;;;;;;;1.7;1.3;;;;;;;4.37;62.17773;95300.7;;;;